Terminal Aerodrome Forecast
Issued by NWS

Home | Current Version | Previous Version | Text Only | Print | Product List | Glossary On
Versions: 1 2 3 4 5 6 7 8 9 10 11 12 13 14 15 16 17 18 19 20 21 22 23 24 25 26 27 28
000
FTUS42 KMLB 262350 RRA
TAFSFB
TAF
KSFB 262350Z 2700/2724 20005KT P6SM SCT040 BKN080
     FM270200 22007KT P6SM VCSH SCT030 OVC090
      TEMPO 2702/2705 4SM SHRA BR BKN030 OVC070
     FM270500 23006KT P6SM VCSH SCT030 BKN070
      TEMPO 2707/2711 -SHRA SCT020 BKN035
     FM271300 22014G20KT P6SM VCSH SCT025 OVC060=

USA.gov is the U.S. government's official web portal to all federal, state and local government web resources and services.